< < Back
Terminal Aerodrome Forecast


Current Version              Previous Versions:   1  2  3  4  5  6  7  8  9  

Terminal Aerodrome Forecast

132
FTUS44 KHUN 020540
TAFHSV
TAF
KHSV 020540Z 0206/0306 13004KT P6SM SCT050 BKN120
     FM021000 19008KT P6SM VCSH SCT015 BKN080
     FM021700 20012G15KT P6SM VCTS SCT025CB BKN250
     FM030100 20010KT P6SM SCT025 BKN250=



Latest METAR

701
SAUS80 KWBC 020900 RRA
MTRHSV
METAR KHSV 020853Z AUTO 16005KT 10SM OVC065 19/13 A3003 RMK AO2 SLP163
T01890133 55001


USA.gov is the U.S. government's official web portal to all federal, state and local government web resources and services.